createdAt,value
2022-09-15T00:01:12.609Z,4.68
2022-09-15T00:04:36.543Z,5.57
2022-09-15T00:08:00.279Z,6.70
2022-09-15T00:11:25.090Z,5.13
2022-09-15T00:14:48.963Z,4.47
2022-09-15T00:18:13.401Z,4.45
2022-09-15T00:21:38.196Z,4.30
2022-09-15T00:25:04.465Z,4.45
2022-09-15T00:28:26.172Z,5.03
2022-09-15T00:31:50.514Z,4.65
2022-09-15T00:35:12.186Z,5.43
2022-09-15T00:38:38.585Z,8.35
2022-09-15T00:42:00.319Z,7.63
2022-09-15T00:45:21.978Z,7.22
2022-09-15T00:48:48.790Z,7.38
2022-09-15T00:52:15.792Z,7.13
2022-09-15T00:55:44.220Z,6.60
2022-09-15T00:59:15.228Z,6.40
2022-09-15T01:02:38.187Z,5.70
2022-09-15T01:06:12.365Z,5.20
2022-09-15T01:09:45.767Z,5.00
2022-09-15T01:13:10.631Z,4.50
2022-09-15T01:16:49.095Z,4.07
2022-09-15T01:20:32.297Z,3.47
2022-09-15T01:24:06.073Z,3.35
2022-09-15T01:27:42.884Z,3.20
2022-09-15T01:31:20.131Z,3.08
2022-09-15T01:38:40.131Z,3.30
2022-09-15T01:42:08.638Z,3.00
2022-09-15T01:45:33.400Z,3.10
2022-09-15T01:48:56.493Z,3.05
2022-09-15T01:52:21.434Z,3.40
2022-09-15T01:55:49.134Z,3.03
2022-09-15T01:59:11.083Z,2.90
2022-09-15T02:02:42.976Z,3.08
2022-09-15T02:06:14.672Z,3.65
2022-09-15T02:10:02.480Z,3.17
2022-09-15T02:13:32.771Z,2.90
2022-09-15T02:16:57.567Z,2.97
2022-09-15T02:20:34.525Z,2.80
2022-09-15T02:24:01.337Z,2.90
2022-09-15T02:27:30.213Z,3.17
2022-09-15T02:30:57.173Z,2.88
2022-09-15T02:34:24.570Z,2.67
2022-09-15T02:37:46.764Z,2.63
2022-09-15T02:41:09.142Z,2.38
2022-09-15T02:44:33.576Z,2.22
2022-09-15T02:47:55.129Z,2.40
2022-09-15T02:51:18.071Z,2.10
2022-09-15T02:54:39.649Z,1.90
2022-09-15T02:58:01.222Z,2.05
2022-09-15T03:01:31.757Z,2.50
2022-09-15T03:04:53.320Z,2.50
2022-09-15T03:08:14.895Z,2.28
2022-09-15T03:11:40.009Z,2.08
2022-09-15T03:15:01.533Z,2.08
2022-09-15T03:18:23.028Z,1.83
2022-09-15T03:21:46.786Z,2.28
2022-09-15T03:25:11.238Z,2.28
2022-09-15T03:28:32.770Z,2.40
2022-09-15T03:31:54.650Z,2.33
2022-09-15T03:35:18.930Z,2.30
2022-09-15T03:38:40.638Z,2.08
2022-09-15T03:42:02.360Z,2.20
2022-09-15T03:45:23.970Z,1.85
2022-09-15T03:48:45.573Z,1.92
2022-09-15T03:52:07.131Z,2.25
2022-09-15T03:55:29.274Z,2.10
2022-09-15T03:58:51.398Z,2.20
2022-09-15T04:02:15.137Z,2.10
2022-09-15T04:05:36.784Z,2.00
2022-09-15T04:09:00.206Z,2.13
2022-09-15T04:12:21.907Z,2.45
2022-09-15T04:15:44.545Z,2.10
2022-09-15T04:19:08.282Z,2.20
2022-09-15T04:22:35.225Z,2.10
2022-09-15T04:25:58.497Z,2.30
2022-09-15T04:29:23.067Z,2.00
2022-09-15T04:32:44.578Z,2.30
2022-09-15T04:36:12.122Z,2.03
2022-09-15T04:39:33.616Z,2.15
2022-09-15T04:42:55.386Z,2.13
2022-09-15T04:46:18.487Z,1.92
2022-09-15T04:49:40.228Z,1.92
2022-09-15T04:53:06.323Z,1.77
2022-09-15T04:56:27.939Z,2.00
2022-09-15T04:59:49.444Z,1.60
2022-09-15T05:03:12.169Z,2.30
2022-09-15T05:06:35.275Z,2.10
2022-09-15T05:09:59.126Z,1.90
2022-09-15T05:13:20.604Z,2.10
2022-09-15T05:16:42.286Z,2.08
2022-09-15T05:20:05.228Z,2.30
2022-09-15T05:23:29.553Z,2.45
2022-09-15T05:26:53.748Z,2.20
2022-09-15T05:30:36.780Z,2.17
2022-09-15T05:33:57.172Z,2.47
2022-09-15T05:37:19.892Z,2.10
2022-09-15T05:40:43.797Z,2.42
2022-09-15T05:44:05.696Z,2.45
2022-09-15T05:47:27.230Z,2.22
2022-09-15T05:50:53.085Z,2.70
2022-09-15T05:54:14.578Z,2.70
2022-09-15T05:57:36.118Z,2.92
2022-09-15T06:01:09.591Z,2.50
2022-09-15T06:04:31.250Z,2.72
2022-09-15T06:07:56.005Z,2.60
2022-09-15T06:11:22.369Z,2.50
2022-09-15T06:14:45.857Z,2.85
2022-09-15T06:18:07.395Z,2.60
2022-09-15T06:21:32.938Z,2.45
2022-09-15T06:24:56.747Z,2.55
2022-09-15T06:28:21.272Z,3.15
2022-09-15T06:31:45.265Z,2.80
2022-09-15T06:35:07.230Z,2.55
2022-09-15T06:38:29.444Z,2.83
2022-09-15T06:42:02.263Z,2.65
2022-09-15T06:45:27.490Z,2.97
2022-09-15T06:48:52.021Z,2.83
2022-09-15T06:52:13.598Z,2.95
2022-09-15T06:55:35.139Z,2.50
2022-09-15T06:58:56.697Z,2.30
2022-09-15T07:02:18.325Z,2.35
2022-09-15T07:05:43.247Z,2.63
2022-09-15T07:09:08.132Z,2.72
2022-09-15T07:12:29.770Z,2.63
2022-09-15T07:16:01.291Z,2.90
2022-09-15T07:19:23.426Z,2.55
2022-09-15T07:22:44.977Z,2.70
2022-09-15T07:26:12.210Z,2.25
2022-09-15T07:29:37.687Z,3.08
2022-09-15T07:32:59.454Z,3.35
2022-09-15T07:36:21.462Z,2.45
2022-09-15T07:39:43.473Z,2.40
2022-09-15T07:43:06.455Z,2.60
2022-09-15T07:46:33.419Z,3.28
2022-09-15T07:49:57.288Z,2.53
2022-09-15T07:53:18.811Z,2.35
2022-09-15T07:56:42.869Z,2.00
2022-09-15T08:00:05.474Z,1.90
2022-09-15T08:03:26.962Z,1.75
2022-09-15T08:06:52.135Z,2.10
2022-09-15T08:10:13.658Z,2.20
2022-09-15T08:13:38.209Z,2.15
2022-09-15T08:17:01.187Z,1.70
2022-09-15T08:20:22.732Z,1.70
2022-09-15T08:23:44.317Z,1.45
2022-09-15T08:27:05.874Z,1.60
2022-09-15T08:30:27.496Z,1.60
2022-09-15T08:33:51.772Z,1.35
2022-09-15T08:37:13.345Z,1.58
2022-09-15T08:40:37.104Z,1.60
2022-09-15T08:44:08.127Z,1.45
2022-09-15T08:47:34.312Z,1.50
2022-09-15T08:51:02.456Z,1.35
2022-09-15T08:54:28.057Z,1.67
2022-09-15T08:57:55.856Z,1.67
2022-09-15T09:01:53.155Z,1.58
2022-09-15T09:05:30.080Z,1.60
2022-09-15T09:09:05.175Z,1.80
2022-09-15T09:12:32.841Z,1.27
2022-09-15T09:16:26.740Z,1.35
2022-09-15T09:19:57.723Z,1.58
2022-09-15T09:23:24.382Z,1.42
2022-09-15T09:26:51.043Z,1.30
2022-09-15T09:30:12.620Z,1.33
2022-09-15T09:34:06.505Z,1.40
2022-09-15T09:37:28.291Z,1.08
2022-09-15T09:40:50.552Z,1.48
2022-09-15T09:44:14.776Z,1.40
2022-09-15T09:47:39.319Z,1.17
2022-09-15T09:51:01.128Z,1.10
2022-09-15T09:54:28.775Z,1.02
2022-09-15T09:57:50.999Z,1.02
2022-09-15T10:01:15.437Z,1.00
2022-09-15T10:04:38.630Z,1.30
2022-09-15T10:08:04.659Z,1.60
2022-09-15T10:11:48.670Z,1.25
2022-09-15T10:15:23.707Z,1.30
2022-09-15T10:18:54.330Z,1.27
2022-09-15T10:22:29.271Z,1.20
2022-09-15T10:26:00.161Z,1.30
2022-09-15T10:29:24.432Z,1.30
2022-09-15T10:32:46.005Z,1.23
2022-09-15T10:36:17.192Z,1.20
2022-09-15T10:39:38.879Z,1.30
2022-09-15T10:43:12.528Z,1.30
2022-09-15T10:47:00.914Z,1.27
2022-09-15T10:53:56.749Z,1.20
2022-09-15T10:57:56.569Z,1.52
2022-09-15T11:01:32.360Z,1.50
2022-09-15T11:05:20.398Z,1.52
2022-09-15T11:09:05.511Z,2.00
2022-09-15T11:12:56.520Z,1.60
2022-09-15T11:16:38.805Z,1.60
2022-09-15T11:20:29.625Z,1.60
2022-09-15T11:24:17.379Z,1.40
2022-09-15T11:28:01.654Z,1.60
2022-09-15T11:31:32.151Z,1.65
2022-09-15T11:35:19.235Z,1.35
2022-09-15T11:38:59.505Z,2.33
2022-09-15T11:42:30.664Z,2.13
2022-09-15T11:45:55.563Z,2.40
2022-09-15T11:49:23.105Z,1.60
2022-09-15T11:52:58.856Z,2.00
2022-09-15T11:56:34.576Z,2.10
2022-09-15T12:00:12.986Z,2.20
2022-09-15T12:03:34.966Z,2.50
2022-09-15T12:07:02.878Z,2.13
2022-09-15T12:10:35.790Z,2.13
2022-09-15T12:14:00.112Z,2.10
2022-09-15T12:17:41.038Z,2.40
2022-09-15T12:21:18.133Z,2.90
2022-09-15T12:24:45.943Z,1.87
2022-09-15T12:28:22.893Z,2.30
2022-09-15T12:31:45.135Z,2.03
2022-09-15T12:35:18.814Z,3.58
2022-09-15T12:38:48.366Z,3.33
2022-09-15T12:42:12.722Z,2.55
2022-09-15T12:45:41.481Z,2.33
2022-09-15T12:49:05.494Z,2.60
2022-09-15T12:52:31.974Z,2.20
2022-09-15T12:56:01.040Z,2.60
2022-09-15T12:59:25.737Z,2.67
2022-09-15T13:02:52.051Z,2.35
2022-09-15T13:06:21.049Z,2.53
2022-09-15T13:09:58.834Z,3.20
2022-09-15T13:13:33.663Z,2.30
2022-09-15T13:17:01.021Z,5.20
2022-09-15T13:20:32.787Z,1.80
2022-09-15T13:23:54.426Z,1.25
2022-09-15T13:27:26.525Z,1.27
2022-09-15T13:31:33.073Z,1.50
2022-09-15T13:35:16.869Z,2.10
2022-09-15T13:39:15.935Z,2.40
2022-09-15T13:42:40.277Z,2.17
2022-09-15T13:46:17.420Z,2.22
2022-09-15T13:50:00.934Z,1.40
2022-09-15T13:53:37.266Z,2.15
2022-09-15T13:57:01.256Z,3.50
2022-09-15T14:00:26.883Z,3.38
2022-09-15T14:03:53.690Z,2.00
2022-09-15T14:07:24.833Z,2.38
2022-09-15T14:10:54.786Z,2.60
2022-09-15T14:14:28.513Z,2.20
2022-09-15T14:17:50.531Z,2.00
2022-09-15T14:21:21.648Z,2.13
2022-09-15T14:24:45.630Z,2.55
2022-09-15T14:28:18.013Z,2.50
2022-09-15T14:31:43.876Z,3.40
2022-09-15T14:35:14.927Z,11.65
2022-09-15T14:38:41.256Z,16.58
2022-09-15T14:42:21.237Z,3.30
2022-09-15T14:45:55.675Z,4.40
2022-09-15T14:49:20.611Z,3.92
2022-09-15T14:53:06.767Z,4.18
2022-09-15T14:56:33.157Z,3.95
2022-09-15T14:59:59.998Z,3.67
2022-09-15T15:03:31.858Z,3.80
2022-09-15T15:07:03.972Z,3.42
2022-09-15T15:10:33.413Z,8.27
2022-09-15T15:13:57.498Z,3.30
2022-09-15T15:17:51.653Z,3.10
2022-09-15T15:21:44.542Z,2.80
2022-09-15T15:25:36.502Z,3.40
2022-09-15T15:28:57.983Z,3.60
2022-09-15T15:32:30.023Z,4.03
2022-09-15T15:36:20.806Z,3.88
2022-09-15T15:39:46.537Z,3.72
2022-09-15T15:43:21.038Z,5.10
2022-09-15T15:46:54.790Z,4.63
2022-09-15T15:50:25.404Z,4.20
2022-09-15T15:53:46.924Z,4.28
2022-09-15T15:57:23.890Z,5.05
2022-09-15T16:00:47.025Z,19.20
2022-09-15T16:04:08.849Z,4.40
2022-09-15T16:07:33.394Z,3.63
2022-09-15T16:10:56.803Z,3.80
2022-09-15T16:14:18.521Z,3.30
2022-09-15T16:17:45.854Z,3.70
2022-09-15T16:21:19.692Z,3.60
2022-09-15T16:24:41.265Z,3.28
2022-09-15T16:28:04.161Z,3.58
2022-09-15T16:31:28.185Z,4.63
2022-09-15T16:34:54.405Z,4.60
2022-09-15T16:38:20.055Z,4.85
2022-09-15T16:41:44.281Z,5.15
2022-09-15T16:45:18.928Z,4.90
2022-09-15T16:48:42.876Z,5.40
2022-09-15T16:52:04.456Z,9.70
2022-09-15T16:55:31.957Z,6.30
2022-09-15T16:58:58.849Z,6.68
2022-09-15T17:05:49.877Z,4.35
2022-09-15T17:09:14.076Z,4.35
2022-09-15T17:12:37.445Z,9.85
2022-09-15T17:16:02.722Z,4.15
2022-09-15T17:19:24.246Z,4.60
2022-09-15T17:22:49.581Z,4.93
2022-09-15T17:26:13.772Z,4.22
2022-09-15T17:29:35.400Z,4.43
2022-09-15T17:33:08.040Z,22.67
2022-09-15T17:36:29.660Z,4.18
2022-09-15T17:39:56.879Z,4.35
2022-09-15T17:43:23.081Z,4.10
2022-09-15T17:46:44.642Z,4.15
2022-09-15T17:50:09.445Z,4.57
2022-09-15T17:53:33.249Z,5.43
2022-09-15T17:56:54.813Z,6.53
2022-09-15T18:00:18.799Z,5.25
2022-09-15T18:03:42.195Z,5.22
2022-09-15T18:07:05.945Z,4.55
2022-09-15T18:10:32.835Z,5.40
2022-09-15T18:13:54.582Z,6.28
2022-09-15T18:17:16.793Z,5.22
2022-09-15T18:20:41.795Z,4.93
2022-09-15T18:24:03.616Z,5.93
2022-09-15T18:27:25.098Z,6.40
2022-09-15T18:30:49.141Z,7.05
2022-09-15T18:34:13.181Z,6.72
2022-09-15T18:37:36.312Z,6.82
2022-09-15T18:40:58.547Z,6.50
2022-09-15T18:44:20.091Z,6.90
2022-09-15T18:47:46.497Z,7.03
2022-09-15T18:51:09.019Z,6.97
2022-09-15T18:54:36.262Z,6.97
2022-09-15T18:58:00.837Z,8.20
2022-09-15T19:01:22.864Z,8.48
2022-09-15T19:04:47.177Z,7.72
2022-09-15T19:08:13.560Z,7.78
2022-09-15T19:11:40.010Z,7.75
2022-09-15T19:15:03.790Z,8.43
2022-09-15T19:18:25.608Z,9.55
2022-09-15T19:21:47.110Z,10.40
2022-09-15T19:25:09.836Z,8.65
2022-09-15T19:28:31.937Z,7.68
2022-09-15T19:31:54.311Z,7.82
2022-09-15T19:35:15.861Z,6.47
2022-09-15T19:38:38.112Z,6.70
2022-09-15T19:41:59.765Z,7.90
2022-09-15T19:45:23.367Z,8.40
2022-09-15T19:48:49.448Z,7.32
2022-09-15T19:52:12.864Z,7.32
2022-09-15T19:55:34.445Z,7.05
2022-09-15T19:58:57.330Z,6.57
2022-09-15T20:02:21.211Z,6.53
2022-09-15T20:05:49.062Z,6.45
2022-09-15T20:09:10.786Z,7.50
2022-09-15T20:12:32.402Z,7.57
2022-09-15T20:16:02.886Z,7.53
2022-09-15T20:19:24.483Z,7.20
2022-09-15T20:22:46.762Z,7.45
2022-09-15T20:26:12.848Z,11.32
2022-09-15T20:29:34.766Z,7.10
2022-09-15T20:32:58.965Z,7.13
2022-09-15T20:36:25.874Z,5.63
2022-09-15T20:39:48.676Z,5.68
2022-09-15T20:43:10.243Z,5.65
2022-09-15T20:46:31.781Z,4.75
2022-09-15T20:49:55.981Z,4.75
2022-09-15T20:53:22.283Z,5.03
2022-09-15T20:56:43.776Z,4.85
2022-09-15T21:00:08.064Z,4.85
2022-09-15T21:03:29.906Z,4.30
2022-09-15T21:06:51.411Z,4.65
2022-09-15T21:10:12.952Z,3.92
2022-09-15T21:13:38.542Z,4.07
2022-09-15T21:17:00.332Z,3.95
2022-09-15T21:20:21.902Z,4.95
2022-09-15T21:23:55.649Z,4.85
2022-09-15T21:27:29.678Z,4.80
2022-09-15T21:30:53.955Z,6.53
2022-09-15T21:34:17.834Z,11.38
2022-09-15T21:37:42.065Z,7.47
2022-09-15T21:41:08.256Z,9.05
2022-09-15T21:44:29.756Z,6.95
2022-09-15T21:47:51.295Z,8.07
2022-09-15T21:51:23.526Z,7.25
2022-09-15T21:54:49.373Z,7.18
2022-09-15T21:58:16.767Z,6.97
2022-09-15T22:01:41.669Z,6.60
2022-09-15T22:05:03.365Z,6.97
2022-09-15T22:08:24.884Z,6.95
2022-09-15T22:11:46.423Z,6.50
2022-09-15T22:15:10.543Z,6.05
2022-09-15T22:18:34.886Z,5.93
2022-09-15T22:21:56.618Z,6.50
2022-09-15T22:25:21.777Z,5.82
2022-09-15T22:28:43.977Z,5.70
2022-09-15T22:32:05.531Z,5.25
2022-09-15T22:35:29.623Z,5.32
2022-09-15T22:38:51.712Z,5.60
2022-09-15T22:42:15.908Z,6.10
2022-09-15T22:45:40.031Z,5.88
2022-09-15T22:49:01.697Z,9.60
2022-09-15T22:52:23.205Z,6.32
2022-09-15T22:55:50.025Z,5.90
2022-09-15T22:59:13.669Z,5.53
2022-09-15T23:02:35.489Z,5.20
2022-09-15T23:05:58.477Z,4.38
2022-09-15T23:09:20.019Z,3.90
2022-09-15T23:12:41.545Z,15.60
2022-09-15T23:16:07.239Z,26.20
2022-09-15T23:19:28.773Z,25.88
2022-09-15T23:22:52.436Z,25.83
2022-09-15T23:26:15.459Z,14.23
2022-09-15T23:29:36.994Z,7.13
2022-09-15T23:33:03.377Z,4.45
2022-09-15T23:36:27.371Z,3.03
2022-09-15T23:39:48.895Z,2.55
2022-09-15T23:43:14.792Z,2.50
2022-09-15T23:46:36.411Z,2.10
2022-09-15T23:50:00.783Z,2.10
2022-09-15T23:53:24.648Z,2.30
2022-09-15T23:56:46.184Z,2.17
